Time;durP1;ratioP1;P1;durP2;ratioP2;P2;SDS_P1;SDS_P2;PMS_P1;PMS_P2;Temp;Humidity;BMP_temperature;BMP_pressure;BME280_temperature;BME280_humidity;BME280_pressure;Samples;Min_cycle;Max_cycle;Signal;HPM_P1;HPM_P2
2022/12/08 00:01:13;;;;;;;9.65;6.03;;;;;;;;;;5052791;28;20439;-82
2022/12/08 00:03:39;;;;;;;10.60;6.85;;;;;;;;;;5056062;28;20500;-83
2022/12/08 00:11:35;;;;;;;16.15;6.75;;;;;;;;;;5054347;28;20409;-82
2022/12/08 00:14:01;;;;;;;11.82;7.07;;;;;;;;;;5053519;28;20427;-82
2022/12/08 00:16:29;;;;;;;10.60;7.03;;;;;;;;;;5056879;28;20432;-83
2022/12/08 00:18:56;;;;;;;9.23;7.10;;;;;;;;;;5051780;28;20429;-82
2022/12/08 00:21:22;;;;;;;12.10;7.43;;;;;;;;;;5059971;28;20429;-82
2022/12/08 00:23:48;;;;;;;11.47;7.10;;;;;;;;;;5053464;28;20505;-82
2022/12/08 00:26:15;;;;;;;14.75;8.02;;;;;;;;;;5048095;28;20415;-82
2022/12/08 00:28:42;;;;;;;11.32;6.95;;;;;;;;;;5051812;28;20417;-82
2022/12/08 00:31:09;;;;;;;14.85;7.60;;;;;;;;;;5053404;28;20413;-82
2022/12/08 00:33:37;;;;;;;11.77;6.97;;;;;;;;;;5056080;28;21076;-82
2022/12/08 00:36:07;;;;;;;15.60;6.93;;;;;;;;;;5052174;28;20440;-82
2022/12/08 00:38:34;;;;;;;12.20;6.55;;;;;;;;;;5051747;28;20429;-82
2022/12/08 00:41:00;;;;;;;11.10;6.40;;;;;;;;;;5052228;28;20416;-82
2022/12/08 00:43:26;;;;;;;10.70;6.43;;;;;;;;;;5032265;28;20915;-82
2022/12/08 00:45:53;;;;;;;12.88;6.50;;;;;;;;;;5050028;28;20584;-82
2022/12/08 00:48:20;;;;;;;16.33;6.80;;;;;;;;;;5055644;28;20426;-82
2022/12/08 00:50:49;;;;;;;10.63;5.80;;;;;;;;;;5038124;28;20496;-82
2022/12/08 00:53:15;;;;;;;16.17;6.60;;;;;;;;;;5050852;28;20428;-82
2022/12/08 00:55:42;;;;;;;10.70;6.40;;;;;;;;;;5052716;28;20425;-82
2022/12/08 00:58:08;;;;;;;11.25;5.50;;;;;;;;;;5051986;28;20432;-82
2022/12/08 01:00:36;;;;;;;13.97;7.00;;;;;;;;;;5054041;28;20436;-82
2022/12/08 01:03:02;;;;;;;9.18;6.00;;;;;;;;;;5051566;28;20435;-82
2022/12/08 01:05:29;;;;;;;11.00;5.40;;;;;;;;;;5053108;28;20545;-82
2022/12/08 01:07:56;;;;;;;11.68;5.53;;;;;;;;;;5051092;28;20424;-82
2022/12/08 01:10:23;;;;;;;7.95;5.30;;;;;;;;;;5052312;28;20442;-82
2022/12/08 01:12:49;;;;;;;8.00;4.90;;;;;;;;;;5058854;28;20436;-82
2022/12/08 01:15:16;;;;;;;8.50;4.70;;;;;;;;;;5052532;28;20979;-82
2022/12/08 01:17:43;;;;;;;9.85;5.22;;;;;;;;;;5051080;28;20430;-82
2022/12/08 01:20:10;;;;;;;11.65;5.25;;;;;;;;;;5055541;28;20805;-82
2022/12/08 01:22:36;;;;;;;8.43;4.60;;;;;;;;;;5053045;28;20433;-81
2022/12/08 01:25:09;;;;;;;7.65;4.93;;;;;;;;;;5058110;28;20440;-81
2022/12/08 01:27:36;;;;;;;8.00;5.20;;;;;;;;;;5051118;28;20432;-82
2022/12/08 01:30:02;;;;;;;6.40;4.50;;;;;;;;;;5052425;28;20958;-82
2022/12/08 01:32:29;;;;;;;7.43;3.88;;;;;;;;;;5051664;28;21213;-82
2022/12/08 01:34:56;;;;;;;5.28;4.20;;;;;;;;;;5053591;28;20517;-82
2022/12/08 01:37:22;;;;;;;8.07;4.28;;;;;;;;;;5053126;28;20418;-82
2022/12/08 01:39:48;;;;;;;7.38;4.10;;;;;;;;;;5050731;28;20436;-82
2022/12/08 01:42:28;;;;;;;6.43;4.20;;;;;;;;;;5055844;28;20908;-82
2022/12/08 01:44:57;;;;;;;10.40;3.83;;;;;;;;;;5055586;28;20463;-82
2022/12/08 01:47:24;;;;;;;5.45;4.55;;;;;;;;;;5053668;28;20414;-82
2022/12/08 01:49:51;;;;;;;5.80;3.70;;;;;;;;;;5054321;28;20425;-82
2022/12/08 01:52:21;;;;;;;6.28;4.00;;;;;;;;;;5053766;28;20409;-82
2022/12/08 01:54:49;;;;;;;7.10;3.60;;;;;;;;;;5053739;28;20431;-82
2022/12/08 01:57:17;;;;;;;7.85;3.88;;;;;;;;;;5054330;28;20413;-82
2022/12/08 01:59:46;;;;;;;6.65;4.10;;;;;;;;;;5050288;28;20434;-82
2022/12/08 02:02:14;;;;;;;8.25;4.13;;;;;;;;;;5054489;28;20401;-82
2022/12/08 02:04:41;;;;;;;6.45;4.03;;;;;;;;;;5052956;28;20430;-82
2022/12/08 02:07:10;;;;;;;4.38;3.63;;;;;;;;;;5052330;28;20422;-81
2022/12/08 02:09:36;;;;;;;9.07;4.20;;;;;;;;;;5051775;28;20429;-81
2022/12/08 02:12:03;;;;;;;6.28;3.88;;;;;;;;;;5056763;28;20416;-82
2022/12/08 02:14:31;;;;;;;7.45;4.20;;;;;;;;;;5056237;28;20417;-82
2022/12/08 02:17:03;;;;;;;8.88;4.00;;;;;;;;;;5053259;28;20424;-82
2022/12/08 02:19:47;;;;;;;6.80;4.03;;;;;;;;;;5060384;28;20433;-82
2022/12/08 02:22:15;;;;;;;7.50;4.00;;;;;;;;;;5058433;28;20791;-82
2022/12/08 02:24:46;;;;;;;5.40;4.30;;;;;;;;;;5056894;28;20796;-81
2022/12/08 02:27:34;;;;;;;8.00;4.70;;;;;;;;;;5053595;28;20405;-82
2022/12/08 02:30:13;;;;;;;8.23;4.72;;;;;;;;;;5048798;28;20421;-82
2022/12/08 02:33:06;;;;;;;7.03;4.50;;;;;;;;;;5055025;28;20799;-82
2022/12/08 02:35:37;;;;;;;8.10;4.60;;;;;;;;;;5060815;28;20433;-82
2022/12/08 02:38:08;;;;;;;9.90;4.82;;;;;;;;;;5054242;28;20500;-82
2022/12/08 02:40:36;;;;;;;8.10;5.05;;;;;;;;;;5058747;28;20806;-81
2022/12/08 02:43:05;;;;;;;7.63;4.90;;;;;;;;;;5055369;28;20427;-82
2022/12/08 02:45:34;;;;;;;11.85;5.50;;;;;;;;;;5056995;28;20433;-81
2022/12/08 02:48:00;;;;;;;8.93;5.18;;;;;;;;;;5060837;28;20440;-82
2022/12/08 02:50:27;;;;;;;8.18;4.70;;;;;;;;;;5057694;28;20431;-82
2022/12/08 02:52:54;;;;;;;6.82;4.60;;;;;;;;;;5054102;28;20409;-82
2022/12/08 02:55:24;;;;;;;5.88;4.47;;;;;;;;;;5057243;28;20544;-82
2022/12/08 02:58:04;;;;;;;8.20;4.53;;;;;;;;;;5057215;28;20423;-82
2022/12/08 03:00:36;;;;;;;9.55;5.20;;;;;;;;;;5059380;28;20791;-82
2022/12/08 03:03:09;;;;;;;6.88;4.88;;;;;;;;;;5057303;28;20421;-82
2022/12/08 03:05:50;;;;;;;7.00;4.65;;;;;;;;;;5058725;28;20433;-82
2022/12/08 03:08:21;;;;;;;9.77;5.30;;;;;;;;;;5053240;28;20442;-82
2022/12/08 03:10:52;;;;;;;9.52;5.30;;;;;;;;;;5056304;28;20457;-82
2022/12/08 03:13:20;;;;;;;8.57;4.90;;;;;;;;;;5054212;28;20477;-82
2022/12/08 03:15:48;;;;;;;7.82;5.03;;;;;;;;;;5059363;28;20431;-82
2022/12/08 03:18:16;;;;;;;8.30;4.60;;;;;;;;;;5050901;28;20425;-82
2022/12/08 03:20:43;;;;;;;5.30;4.47;;;;;;;;;;5051401;28;20430;-84
2022/12/08 03:23:11;;;;;;;5.47;4.30;;;;;;;;;;5058017;28;20429;-82
2022/12/08 03:25:43;;;;;;;6.97;4.53;;;;;;;;;;5057771;28;20439;-82
2022/12/08 03:28:09;;;;;;;9.15;4.35;;;;;;;;;;5056934;28;20431;-82
2022/12/08 03:30:37;;;;;;;5.70;4.60;;;;;;;;;;5056846;28;20429;-82
2022/12/08 03:33:04;;;;;;;8.18;4.20;;;;;;;;;;5052086;28;20957;-82
2022/12/08 03:35:33;;;;;;;4.80;3.58;;;;;;;;;;5053623;28;20431;-82
2022/12/08 03:38:02;;;;;;;4.45;4.00;;;;;;;;;;5055987;28;20436;-82
2022/12/08 03:40:28;;;;;;;6.95;4.10;;;;;;;;;;5055931;28;20936;-82
2022/12/08 03:42:56;;;;;;;6.30;3.90;;;;;;;;;;5054627;28;20428;-82
2022/12/08 03:45:22;;;;;;;4.20;3.70;;;;;;;;;;5056286;28;20427;-82
2022/12/08 03:47:48;;;;;;;5.20;4.10;;;;;;;;;;5057716;28;20429;-82
2022/12/08 03:50:15;;;;;;;7.00;3.75;;;;;;;;;;5053795;28;20433;-81
2022/12/08 03:52:41;;;;;;;4.60;3.50;;;;;;;;;;5054325;28;20406;-83
2022/12/08 03:55:07;;;;;;;6.65;4.40;;;;;;;;;;5055733;28;20428;-82
2022/12/08 03:57:34;;;;;;;5.28;3.70;;;;;;;;;;5054444;28;20914;-82
2022/12/08 04:00:01;;;;;;;3.63;3.30;;;;;;;;;;5056586;28;20415;-82
2022/12/08 04:02:28;;;;;;;5.05;3.30;;;;;;;;;;5054724;28;20416;-82
2022/12/08 04:04:54;;;;;;;9.93;3.95;;;;;;;;;;5058823;28;20429;-82
2022/12/08 04:07:20;;;;;;;6.15;3.25;;;;;;;;;;5056505;28;20933;-82
2022/12/08 04:09:47;;;;;;;5.10;3.20;;;;;;;;;;5055024;28;20419;-82
2022/12/08 04:12:13;;;;;;;4.18;3.30;;;;;;;;;;5053932;28;20411;-82
2022/12/08 04:14:40;;;;;;;5.00;3.72;;;;;;;;;;5056061;28;20441;-82
2022/12/08 04:17:07;;;;;;;6.82;3.70;;;;;;;;;;5055322;28;20756;-82
2022/12/08 04:19:34;;;;;;;4.32;3.53;;;;;;;;;;5055019;28;20436;-82
2022/12/08 04:22:00;;;;;;;4.70;3.58;;;;;;;;;;5058697;28;20416;-82
2022/12/08 04:24:27;;;;;;;5.43;3.65;;;;;;;;;;5054143;28;20433;-82
2022/12/08 04:26:53;;;;;;;4.63;3.33;;;;;;;;;;5052660;28;20771;-82
2022/12/08 04:29:19;;;;;;;7.40;3.70;;;;;;;;;;5054987;28;20894;-82
2022/12/08 04:31:46;;;;;;;5.22;4.28;;;;;;;;;;5053676;28;20413;-82
2022/12/08 04:34:13;;;;;;;4.38;3.38;;;;;;;;;;5038437;28;20942;-82
2022/12/08 04:36:40;;;;;;;8.63;4.10;;;;;;;;;;5052576;28;20415;-82
2022/12/08 04:39:06;;;;;;;7.50;3.63;;;;;;;;;;5052270;28;20433;-82
2022/12/08 04:41:33;;;;;;;6.68;3.80;;;;;;;;;;5050132;28;20493;-82
2022/12/08 04:43:59;;;;;;;4.55;3.50;;;;;;;;;;5051771;28;20426;-82
2022/12/08 04:46:26;;;;;;;9.05;4.10;;;;;;;;;;5057005;28;20430;-82
2022/12/08 04:48:52;;;;;;;5.20;3.50;;;;;;;;;;5053637;28;20885;-82
2022/12/08 04:51:20;;;;;;;5.60;3.75;;;;;;;;;;5052510;28;20427;-82
2022/12/08 04:53:47;;;;;;;5.90;3.63;;;;;;;;;;5053826;28;20821;-82
2022/12/08 04:56:13;;;;;;;5.40;3.53;;;;;;;;;;5052973;28;20916;-81
2022/12/08 04:58:39;;;;;;;5.68;3.10;;;;;;;;;;5055139;28;20428;-82
2022/12/08 05:01:06;;;;;;;3.70;3.15;;;;;;;;;;5054654;28;20450;-82
2022/12/08 05:03:32;;;;;;;5.20;3.75;;;;;;;;;;5053068;28;20801;-82
2022/12/08 05:05:59;;;;;;;3.50;3.20;;;;;;;;;;5052256;28;20424;-81
2022/12/08 05:08:27;;;;;;;4.30;3.20;;;;;;;;;;5054118;28;20426;-82
2022/12/08 05:10:53;;;;;;;3.97;3.30;;;;;;;;;;5052574;28;20432;-82
2022/12/08 05:13:20;;;;;;;4.78;3.33;;;;;;;;;;5056996;28;21268;-82
2022/12/08 05:15:46;;;;;;;4.13;3.70;;;;;;;;;;5055342;28;20484;-82
2022/12/08 05:18:12;;;;;;;3.50;3.20;;;;;;;;;;5054692;28;20433;-82
2022/12/08 05:20:39;;;;;;;4.57;3.47;;;;;;;;;;5053486;28;20417;-82
2022/12/08 05:23:05;;;;;;;3.73;3.40;;;;;;;;;;5050808;28;20418;-82
2022/12/08 05:25:33;;;;;;;4.07;3.67;;;;;;;;;;5060077;28;20436;-82
2022/12/08 05:28:02;;;;;;;7.50;3.70;;;;;;;;;;5050928;28;20797;-81
2022/12/08 05:30:28;;;;;;;6.60;3.45;;;;;;;;;;5053850;28;20429;-82
2022/12/08 05:32:55;;;;;;;5.07;3.40;;;;;;;;;;5051236;28;20432;-82
2022/12/08 05:35:21;;;;;;;5.00;3.67;;;;;;;;;;5054221;28;20413;-82
2022/12/08 05:37:47;;;;;;;4.60;3.70;;;;;;;;;;5054233;28;20447;-82
2022/12/08 05:40:14;;;;;;;4.00;3.30;;;;;;;;;;5061020;28;20523;-82
2022/12/08 05:42:41;;;;;;;4.90;3.50;;;;;;;;;;5058807;28;20423;-81
2022/12/08 05:45:08;;;;;;;6.43;4.80;;;;;;;;;;5058689;28;20425;-82
2022/12/08 05:47:35;;;;;;;5.22;3.70;;;;;;;;;;5055009;28;21075;-82
2022/12/08 05:50:01;;;;;;;6.63;4.63;;;;;;;;;;5060956;28;20433;-82
2022/12/08 05:52:27;;;;;;;5.32;4.45;;;;;;;;;;5058068;28;20418;-82
2022/12/08 05:54:54;;;;;;;8.25;5.18;;;;;;;;;;5057416;28;20437;-82
2022/12/08 05:57:20;;;;;;;8.10;5.90;;;;;;;;;;5057205;28;20421;-82
2022/12/08 05:59:48;;;;;;;8.60;5.80;;;;;;;;;;5055811;28;21543;-82
2022/12/08 06:02:15;;;;;;;5.17;4.67;;;;;;;;;;5057445;28;20417;-82
2022/12/08 06:04:42;;;;;;;6.35;4.90;;;;;;;;;;5055281;28;20436;-81
2022/12/08 06:07:09;;;;;;;6.20;5.50;;;;;;;;;;5054038;28;20810;-82
2022/12/08 06:09:35;;;;;;;7.05;5.18;;;;;;;;;;5055533;28;20442;-81
2022/12/08 06:12:01;;;;;;;7.95;5.55;;;;;;;;;;5061510;28;20415;-82
2022/12/08 06:14:28;;;;;;;6.78;5.40;;;;;;;;;;5055984;28;20427;-82
2022/12/08 06:16:55;;;;;;;6.63;5.28;;;;;;;;;;5054431;28;20434;-82
2022/12/08 06:19:22;;;;;;;9.57;5.57;;;;;;;;;;5056024;28;20510;-82
2022/12/08 06:21:48;;;;;;;7.20;5.30;;;;;;;;;;5052051;28;20435;-82
2022/12/08 06:24:15;;;;;;;6.20;5.40;;;;;;;;;;5055243;28;20505;-81
2022/12/08 06:26:42;;;;;;;7.05;5.70;;;;;;;;;;5055350;28;20963;-82
2022/12/08 06:29:08;;;;;;;9.20;5.68;;;;;;;;;;5055595;28;20425;-82
2022/12/08 06:31:34;;;;;;;5.03;4.47;;;;;;;;;;5057809;28;20456;-82
2022/12/08 06:34:02;;;;;;;5.18;4.53;;;;;;;;;;5054717;28;20417;-82
2022/12/08 06:36:29;;;;;;;6.47;4.60;;;;;;;;;;5056087;28;20463;-83
2022/12/08 06:38:56;;;;;;;12.20;6.05;;;;;;;;;;5057321;28;20433;-82
2022/12/08 06:41:22;;;;;;;8.10;4.97;;;;;;;;;;5059528;28;20892;-82
2022/12/08 06:43:50;;;;;;;6.50;4.68;;;;;;;;;;5053830;28;20468;-81
2022/12/08 06:46:18;;;;;;;8.93;5.10;;;;;;;;;;5051189;28;20447;-82
2022/12/08 06:48:45;;;;;;;4.65;4.22;;;;;;;;;;5056665;28;20796;-82
2022/12/08 06:51:14;;;;;;;4.65;3.80;;;;;;;;;;5059981;28;20427;-82
2022/12/08 06:53:40;;;;;;;5.28;4.03;;;;;;;;;;5056575;28;20568;-82
2022/12/08 06:56:07;;;;;;;4.63;3.83;;;;;;;;;;5054338;28;20790;-82
2022/12/08 06:58:34;;;;;;;4.10;3.40;;;;;;;;;;5055733;28;20778;-82
2022/12/08 07:01:04;;;;;;;3.65;3.30;;;;;;;;;;5053204;28;20437;-82
2022/12/08 07:03:30;;;;;;;4.80;3.40;;;;;;;;;;5052230;28;20419;-82
2022/12/08 07:05:57;;;;;;;4.03;3.72;;;;;;;;;;5057367;28;20413;-81
2022/12/08 07:08:25;;;;;;;3.97;3.57;;;;;;;;;;5053912;28;20417;-82
2022/12/08 07:10:51;;;;;;;4.57;3.80;;;;;;;;;;5055448;28;20822;-81
2022/12/08 07:13:18;;;;;;;4.40;4.00;;;;;;;;;;5058512;28;20418;-82
2022/12/08 07:15:45;;;;;;;4.40;3.70;;;;;;;;;;5058070;28;20426;-82
2022/12/08 07:18:11;;;;;;;4.75;4.13;;;;;;;;;;5060252;28;20512;-82
2022/12/08 07:20:38;;;;;;;4.70;3.90;;;;;;;;;;5054552;28;20423;-82
2022/12/08 07:23:04;;;;;;;3.60;3.30;;;;;;;;;;5056443;28;20413;-81
2022/12/08 07:25:32;;;;;;;5.35;3.90;;;;;;;;;;5056181;28;20949;-82
2022/12/08 07:27:59;;;;;;;4.90;4.00;;;;;;;;;;5059318;28;20426;-82
2022/12/08 07:30:26;;;;;;;4.22;3.83;;;;;;;;;;5052509;28;20422;-82
2022/12/08 07:32:52;;;;;;;6.13;3.70;;;;;;;;;;5053477;28;20411;-82
2022/12/08 07:35:18;;;;;;;5.75;3.60;;;;;;;;;;5054541;28;20406;-82
2022/12/08 07:37:45;;;;;;;4.28;3.67;;;;;;;;;;5054181;28;20793;-82
2022/12/08 07:40:12;;;;;;;5.63;3.90;;;;;;;;;;5059786;28;20821;-82
2022/12/08 07:42:40;;;;;;;5.70;3.60;;;;;;;;;;5055402;28;20419;-82
2022/12/08 07:45:07;;;;;;;4.78;3.35;;;;;;;;;;5058075;28;20432;-81
2022/12/08 07:47:33;;;;;;;5.43;3.30;;;;;;;;;;5057136;28;20438;-82
2022/12/08 07:50:00;;;;;;;6.43;4.03;;;;;;;;;;5056503;28;20405;-82
2022/12/08 07:52:26;;;;;;;5.00;3.90;;;;;;;;;;5055427;28;20799;-82
2022/12/08 07:54:52;;;;;;;4.10;3.67;;;;;;;;;;5055164;28;20471;-82
2022/12/08 07:57:19;;;;;;;6.45;4.10;;;;;;;;;;5049952;28;20427;-84
2022/12/08 07:59:46;;;;;;;4.97;3.35;;;;;;;;;;5059143;28;20432;-82
2022/12/08 08:02:16;;;;;;;5.03;3.67;;;;;;;;;;5053585;28;20415;-82
2022/12/08 08:04:42;;;;;;;3.70;3.30;;;;;;;;;;5053767;28;20930;-82
2022/12/08 08:07:09;;;;;;;4.20;3.38;;;;;;;;;;5051634;28;20418;-82
2022/12/08 08:09:35;;;;;;;3.47;3.17;;;;;;;;;;5054237;28;20418;-82
2022/12/08 08:12:01;;;;;;;4.85;3.15;;;;;;;;;;5055760;28;20415;-82
2022/12/08 08:14:28;;;;;;;4.32;3.38;;;;;;;;;;5052112;28;20432;-82
2022/12/08 08:16:55;;;;;;;4.30;3.40;;;;;;;;;;5055832;28;20422;-82
2022/12/08 08:19:22;;;;;;;3.40;3.10;;;;;;;;;;5060445;28;20409;-82
2022/12/08 08:21:48;;;;;;;4.50;3.10;;;;;;;;;;5050200;28;20406;-82
2022/12/08 08:24:14;;;;;;;4.45;3.13;;;;;;;;;;5056990;28;20425;-82
2022/12/08 08:26:41;;;;;;;4.57;3.20;;;;;;;;;;5053223;28;20415;-81
2022/12/08 08:29:07;;;;;;;3.80;3.13;;;;;;;;;;5048060;28;20409;-81
2022/12/08 08:31:33;;;;;;;4.10;3.47;;;;;;;;;;5052412;28;20432;-82
2022/12/08 08:34:04;;;;;;;3.63;3.30;;;;;;;;;;5052519;28;20483;-82
2022/12/08 08:36:31;;;;;;;3.90;3.30;;;;;;;;;;5047857;28;20425;-82
2022/12/08 08:38:57;;;;;;;5.30;3.08;;;;;;;;;;5052069;28;20416;-81
2022/12/08 08:41:23;;;;;;;4.30;3.10;;;;;;;;;;5053184;28;20430;-83
2022/12/08 08:43:50;;;;;;;4.22;3.13;;;;;;;;;;5051975;28;20422;-82
2022/12/08 08:46:16;;;;;;;4.80;3.10;;;;;;;;;;5052581;28;20428;-82
2022/12/08 08:48:43;;;;;;;3.60;2.60;;;;;;;;;;5048261;28;20417;-82
2022/12/08 08:51:11;;;;;;;4.67;3.50;;;;;;;;;;5054548;28;20509;-82
2022/12/08 08:53:38;;;;;;;4.10;3.20;;;;;;;;;;5050293;28;20421;-82
2022/12/08 08:56:08;;;;;;;3.88;3.30;;;;;;;;;;5055676;28;20477;-82
2022/12/08 08:58:35;;;;;;;3.10;2.80;;;;;;;;;;5052422;28;20448;-82
2022/12/08 09:01:01;;;;;;;4.65;3.00;;;;;;;;;;5050565;28;20420;-82
2022/12/08 09:03:27;;;;;;;6.40;3.40;;;;;;;;;;5055046;28;20490;-82
2022/12/08 09:05:54;;;;;;;4.45;3.33;;;;;;;;;;5051843;28;20460;-83
2022/12/08 09:08:22;;;;;;;4.97;3.22;;;;;;;;;;5051026;28;20409;-82
2022/12/08 09:10:49;;;;;;;4.63;3.20;;;;;;;;;;5049932;28;20467;-82
2022/12/08 09:13:15;;;;;;;4.47;3.23;;;;;;;;;;5054100;28;20422;-82
2022/12/08 09:15:41;;;;;;;4.38;3.42;;;;;;;;;;5049594;28;20402;-82
2022/12/08 09:18:08;;;;;;;4.97;3.42;;;;;;;;;;5049908;28;20421;-82
2022/12/08 09:20:35;;;;;;;4.00;2.80;;;;;;;;;;5052262;28;20433;-82
2022/12/08 09:23:01;;;;;;;4.03;3.20;;;;;;;;;;5051343;28;20463;-82
2022/12/08 09:25:29;;;;;;;3.80;3.40;;;;;;;;;;5049888;28;20430;-82
2022/12/08 09:27:55;;;;;;;4.90;3.10;;;;;;;;;;5034534;28;20506;-82
2022/12/08 09:30:21;;;;;;;3.90;3.50;;;;;;;;;;5051499;28;20423;-83
2022/12/08 09:32:48;;;;;;;4.45;3.40;;;;;;;;;;5052535;28;20427;-82
2022/12/08 09:35:14;;;;;;;4.05;3.13;;;;;;;;;;5047883;28;20406;-82
2022/12/08 09:37:40;;;;;;;5.07;3.40;;;;;;;;;;5053203;28;20429;-82
2022/12/08 09:40:07;;;;;;;6.05;3.70;;;;;;;;;;5051493;28;20417;-82
2022/12/08 09:42:40;;;;;;;7.35;3.95;;;;;;;;;;5054628;28;20415;-82
2022/12/08 09:45:09;;;;;;;4.18;3.78;;;;;;;;;;5052030;28;20574;-82
2022/12/08 09:47:37;;;;;;;6.10;3.90;;;;;;;;;;5050180;28;20425;-82
2022/12/08 09:50:06;;;;;;;5.80;3.80;;;;;;;;;;5052687;28;20409;-82
2022/12/08 09:52:35;;;;;;;6.90;4.20;;;;;;;;;;5046419;28;20427;-82
2022/12/08 09:55:04;;;;;;;5.28;4.20;;;;;;;;;;5051572;28;20427;-82
2022/12/08 09:57:30;;;;;;;5.60;4.05;;;;;;;;;;5051191;28;20430;-83
2022/12/08 10:00:00;;;;;;;6.50;4.30;;;;;;;;;;5054710;28;20417;-82
2022/12/08 10:02:29;;;;;;;5.03;3.80;;;;;;;;;;5055726;28;20441;-82
2022/12/08 10:04:56;;;;;;;4.97;4.13;;;;;;;;;;5048266;28;20430;-82
2022/12/08 10:07:25;;;;;;;5.57;4.13;;;;;;;;;;5046832;28;20419;-82
2022/12/08 10:09:55;;;;;;;4.00;3.60;;;;;;;;;;5053039;28;20935;-82
2022/12/08 10:12:25;;;;;;;4.72;3.25;;;;;;;;;;5050042;28;20502;-82
2022/12/08 10:14:56;;;;;;;3.88;3.13;;;;;;;;;;5044782;28;20420;-82
2022/12/08 10:17:25;;;;;;;3.88;2.88;;;;;;;;;;5049669;28;20959;-82
2022/12/08 10:19:55;;;;;;;3.35;2.70;;;;;;;;;;5054702;28;20421;-83
2022/12/08 10:22:24;;;;;;;4.65;2.70;;;;;;;;;;5050644;28;20418;-82
2022/12/08 10:24:53;;;;;;;5.07;2.70;;;;;;;;;;5054256;28;20433;-82
2022/12/08 10:27:19;;;;;;;4.80;2.67;;;;;;;;;;5056886;28;20924;-82
2022/12/08 10:29:46;;;;;;;3.80;2.70;;;;;;;;;;5053347;28;20435;-82
2022/12/08 10:32:14;;;;;;;3.90;2.97;;;;;;;;;;5056986;28;20417;-82
2022/12/08 10:34:55;;;;;;;4.40;2.90;;;;;;;;;;5056642;28;20401;-83
2022/12/08 10:37:23;;;;;;;3.80;2.15;;;;;;;;;;5055194;28;20413;-82
2022/12/08 10:40:00;;;;;;;3.17;2.35;;;;;;;;;;5059884;28;20933;-82
2022/12/08 10:42:30;;;;;;;5.05;2.50;;;;;;;;;;5054446;28;20471;-82
2022/12/08 10:45:00;;;;;;;4.18;2.40;;;;;;;;;;5052046;28;20440;-82
2022/12/08 10:47:27;;;;;;;2.95;2.40;;;;;;;;;;5055481;28;20418;-82
2022/12/08 10:50:06;;;;;;;4.70;2.40;;;;;;;;;;5054445;28;20422;-82
2022/12/08 10:52:37;;;;;;;3.03;2.33;;;;;;;;;;5055417;28;20510;-82
2022/12/08 10:55:03;;;;;;;5.03;2.70;;;;;;;;;;5057545;28;20425;-82
2022/12/08 10:57:30;;;;;;;3.80;2.60;;;;;;;;;;5051735;28;20427;-82
2022/12/08 10:59:57;;;;;;;2.53;2.30;;;;;;;;;;5035435;28;20445;-82
2022/12/08 11:02:23;;;;;;;3.38;2.67;;;;;;;;;;5054790;28;20418;-82
2022/12/08 11:04:57;;;;;;;4.50;2.47;;;;;;;;;;5057954;28;20430;-82
2022/12/08 11:07:26;;;;;;;6.30;2.63;;;;;;;;;;5051715;28;20433;-83
2022/12/08 11:09:56;;;;;;;9.80;2.53;;;;;;;;;;5055392;28;20425;-82
2022/12/08 11:12:26;;;;;;;3.13;2.67;;;;;;;;;;5053996;28;20418;-82
2022/12/08 11:14:56;;;;;;;3.53;2.35;;;;;;;;;;5058029;28;20414;-83
2022/12/08 11:17:24;;;;;;;4.78;2.33;;;;;;;;;;5049430;28;20822;-82
2022/12/08 11:19:55;;;;;;;4.78;2.30;;;;;;;;;;5050994;28;20415;-82
2022/12/08 11:22:22;;;;;;;5.45;2.50;;;;;;;;;;5051919;28;20419;-82
2022/12/08 11:24:59;;;;;;;3.97;2.20;;;;;;;;;;5055032;28;20432;-82
2022/12/08 11:27:27;;;;;;;3.42;2.35;;;;;;;;;;5054488;28;20422;-82
2022/12/08 11:29:53;;;;;;;5.97;2.72;;;;;;;;;;5054043;28;20415;-82
2022/12/08 11:32:20;;;;;;;4.40;2.70;;;;;;;;;;5049637;28;20780;-82
2022/12/08 11:34:48;;;;;;;4.65;2.80;;;;;;;;;;5055910;28;20427;-82
2022/12/08 11:37:17;;;;;;;3.50;2.40;;;;;;;;;;5049497;28;20415;-82
2022/12/08 11:39:44;;;;;;;6.68;2.50;;;;;;;;;;5054098;28;20413;-82
2022/12/08 11:42:14;;;;;;;3.60;2.35;;;;;;;;;;5055280;28;20411;-82
2022/12/08 11:44:49;;;;;;;4.63;3.20;;;;;;;;;;5054137;28;20429;-82
2022/12/08 11:47:18;;;;;;;2.70;2.22;;;;;;;;;;5050064;28;20412;-82
2022/12/08 11:49:45;;;;;;;3.60;2.75;;;;;;;;;;5054524;28;20427;-82
2022/12/08 11:52:18;;;;;;;4.82;2.47;;;;;;;;;;5056168;28;20417;-82
2022/12/08 11:54:46;;;;;;;5.38;2.30;;;;;;;;;;5054610;28;20409;-82
2022/12/08 11:57:19;;;;;;;5.00;2.75;;;;;;;;;;5053432;28;20425;-82
2022/12/08 11:59:49;;;;;;;3.50;2.42;;;;;;;;;;5053498;28;20414;-82
2022/12/08 12:02:18;;;;;;;4.70;2.87;;;;;;;;;;5052170;28;20993;-82
2022/12/08 12:04:48;;;;;;;6.35;3.30;;;;;;;;;;5050125;28;20428;-82
2022/12/08 12:07:28;;;;;;;5.25;2.65;;;;;;;;;;5054514;28;20430;-82
2022/12/08 12:10:06;;;;;;;4.22;2.30;;;;;;;;;;5053292;28;20436;-82
2022/12/08 12:12:43;;;;;;;3.83;2.50;;;;;;;;;;5050184;28;20805;-82
2022/12/08 12:15:23;;;;;;;5.45;2.80;;;;;;;;;;5055004;28;20410;-82
2022/12/08 12:17:52;;;;;;;3.10;2.50;;;;;;;;;;5053348;28;20417;-82
2022/12/08 12:20:20;;;;;;;6.40;2.90;;;;;;;;;;5058176;28;20428;-82
2022/12/08 12:22:50;;;;;;;3.90;2.55;;;;;;;;;;5050189;28;20423;-82
2022/12/08 12:25:19;;;;;;;4.18;3.00;;;;;;;;;;5052025;28;20433;-82
2022/12/08 12:27:48;;;;;;;5.13;2.90;;;;;;;;;;5054441;28;20428;-82
2022/12/08 12:30:20;;;;;;;6.93;3.10;;;;;;;;;;5053436;28;20444;-82
2022/12/08 12:32:48;;;;;;;4.90;2.70;;;;;;;;;;5050875;28;20410;-82
2022/12/08 12:35:16;;;;;;;3.00;2.30;;;;;;;;;;5049828;28;20429;-82
2022/12/08 12:37:43;;;;;;;3.35;2.30;;;;;;;;;;5051226;28;20414;-82
2022/12/08 12:40:16;;;;;;;5.68;2.58;;;;;;;;;;5049841;28;20413;-84
2022/12/08 12:42:43;;;;;;;4.70;2.53;;;;;;;;;;5053036;28;20417;-82
2022/12/08 12:45:27;;;;;;;5.10;2.60;;;;;;;;;;5049836;28;20425;-82
2022/12/08 12:50:50;;;;;;;4.20;2.42;;;;;;;;;;5125408;27;20375;-82
2022/12/08 12:53:37;;;;;;;6.55;2.60;;;;;;;;;;5098912;27;20837;-82
2022/12/08 12:56:04;;;;;;;4.55;2.20;;;;;;;;;;5082880;28;20902;-82
2022/12/08 12:58:35;;;;;;;4.10;3.13;;;;;;;;;;5085560;28;20414;-82
2022/12/08 13:01:21;;;;;;;9.20;3.83;;;;;;;;;;5084890;28;20472;-82
2022/12/08 13:03:49;;;;;;;4.70;2.40;;;;;;;;;;5080422;28;20420;-82
2022/12/08 13:06:22;;;;;;;5.03;3.25;;;;;;;;;;5084366;28;20415;-82
2022/12/08 13:08:50;;;;;;;5.75;4.10;;;;;;;;;;5086610;28;20418;-82
2022/12/08 13:11:17;;;;;;;5.30;2.50;;;;;;;;;;5083432;28;20409;-82
2022/12/08 13:13:55;;;;;;;8.33;4.40;;;;;;;;;;5085311;28;20409;-82
2022/12/08 13:16:24;;;;;;;6.57;3.75;;;;;;;;;;5083005;28;20426;-82
2022/12/08 13:18:52;;;;;;;6.15;2.28;;;;;;;;;;5080529;28;20421;-82
2022/12/08 13:21:20;;;;;;;6.20;2.85;;;;;;;;;;5081108;28;20439;-82
2022/12/08 13:23:47;;;;;;;5.57;2.10;;;;;;;;;;5084297;28;20418;-82
2022/12/08 13:26:16;;;;;;;7.53;2.95;;;;;;;;;;5089208;28;20443;-82
2022/12/08 13:29:02;;;;;;;5.15;2.03;;;;;;;;;;5087638;28;20415;-83
2022/12/08 13:31:36;;;;;;;5.03;2.75;;;;;;;;;;5089814;28;20408;-82
2022/12/08 13:34:04;;;;;;;10.15;5.25;;;;;;;;;;5082302;28;20431;-82
2022/12/08 13:36:33;;;;;;;6.75;5.80;;;;;;;;;;5086014;28;20411;-82
2022/12/08 13:39:00;;;;;;;4.43;3.70;;;;;;;;;;5081719;28;20882;-82
2022/12/08 13:41:29;;;;;;;4.22;1.60;;;;;;;;;;5079220;28;20424;-82
2022/12/08 13:44:00;;;;;;;4.40;2.30;;;;;;;;;;5081485;28;20436;-82
2022/12/08 13:46:31;;;;;;;5.45;3.08;;;;;;;;;;5084047;28;20460;-82
2022/12/08 13:48:58;;;;;;;3.35;1.75;;;;;;;;;;5077934;28;20419;-82
2022/12/08 13:51:28;;;;;;;10.20;6.35;;;;;;;;;;5084013;28;20492;-82
2022/12/08 13:53:59;;;;;;;5.90;3.45;;;;;;;;;;5083519;28;20502;-82
2022/12/08 13:56:26;;;;;;;4.50;1.80;;;;;;;;;;5084434;28;20503;-82
2022/12/08 13:59:06;;;;;;;5.03;2.00;;;;;;;;;;5086104;28;20427;-83
2022/12/08 14:01:33;;;;;;;6.93;2.10;;;;;;;;;;5074397;28;20403;-82
2022/12/08 14:04:00;;;;;;;3.50;1.90;;;;;;;;;;5066800;28;20432;-82
2022/12/08 14:06:30;;;;;;;5.18;2.80;;;;;;;;;;5070181;28;20415;-82
2022/12/08 14:08:59;;;;;;;5.53;2.50;;;;;;;;;;5067560;28;20423;-82
2022/12/08 14:11:33;;;;;;;4.50;2.40;;;;;;;;;;5071138;28;20425;-82
2022/12/08 14:14:02;;;;;;;4.00;2.50;;;;;;;;;;5068868;28;20415;-82
2022/12/08 14:16:32;;;;;;;5.70;2.67;;;;;;;;;;5069849;28;20425;-82
2022/12/08 14:19:04;;;;;;;7.20;3.30;;;;;;;;;;5069888;28;20421;-82
2022/12/08 14:21:30;;;;;;;6.35;3.10;;;;;;;;;;5068890;28;20425;-82
2022/12/08 14:24:02;;;;;;;10.43;3.40;;;;;;;;;;5071456;28;20419;-82
2022/12/08 14:26:32;;;;;;;9.65;3.90;;;;;;;;;;5072596;28;20428;-82
2022/12/08 14:28:58;;;;;;;10.18;3.85;;;;;;;;;;5066816;28;20431;-82
2022/12/08 14:31:25;;;;;;;8.15;3.60;;;;;;;;;;5071587;28;20422;-82
2022/12/08 14:33:53;;;;;;;9.85;4.53;;;;;;;;;;5068095;28;20425;-82
2022/12/08 14:36:19;;;;;;;9.40;4.25;;;;;;;;;;5068267;28;20440;-82
2022/12/08 14:38:47;;;;;;;7.10;3.70;;;;;;;;;;5070406;28;20861;-83
2022/12/08 14:41:14;;;;;;;9.52;4.03;;;;;;;;;;5066746;28;20424;-82
2022/12/08 14:43:41;;;;;;;8.83;4.67;;;;;;;;;;5069908;28;20468;-82
2022/12/08 14:46:18;;;;;;;10.00;4.10;;;;;;;;;;5066277;28;20474;-82
2022/12/08 14:48:45;;;;;;;9.13;5.00;;;;;;;;;;5068121;28;21005;-82
2022/12/08 14:51:19;;;;;;;8.02;4.60;;;;;;;;;;5067548;28;20427;-83
2022/12/08 14:53:47;;;;;;;5.85;3.63;;;;;;;;;;5068227;28;20417;-83
2022/12/08 14:56:22;;;;;;;8.80;3.90;;;;;;;;;;5070754;28;20415;-82